Thunder radar more information blitzortung!


Radar de pluja more information rain snow radar


Visita la nostra xarxa de llocs de meteo:

Template documentation
and downloads

And another site



No particular awareness of the weather is required.    There are no Weather-warnings

Pagina Historial Weather Underground text

Diari Resum Agost 14, 2017 Unitats:  Imperial    Mètric   Tant
« Previous Dia
SegĂźent Dia »
Diari Setmana Mensual Anual Personalitzada
  Maxima: Minima: Media:
Temperatura: TemperatureC °F 17.1 °F 26.9 °F
Punt de rosada: DewpointC °F 9.8 °F 13.7 °F
Humitat: Humidity % 29 % 47 %
Wind Speed: WindSpeedKMH mph 0.0 mph 6.9 mph
RĂ fegues de vent: WindSpeedGustKMH mph - -
Vent:- - SSW
Pression baro: PressurehPa in 1014.8 in -
Precipitacions: 0.0 in    
Historical Graphs
 
 
Dades de taula per Agost 14, 2017
Temps Temperatura Punt de rosada Pression baro Vent Wind Speed RĂ fegues de vent Humitat Rainfall Rate (Hourly)
TemperatureC °F DewpointC °F PressurehPa in Calm     Humidity % HourlyPrecipMM in
00:01 21.7 °F 15.6 °F 1017.8 in WSW 3.7 mph 3.7 mph 68 % 0.0 in
00:05 18.7 °F 15.4 °F 1015.8 in Calm   1.6 mph 81 % 0.0 in
00:06 21.7 °F 15.6 °F 1017.8 in Calm     68 % 0.0 in
00:15 18.5 °F 15.2 °F 1015.8 in WNW 1.6 mph 3.2 mph 81 % 0.0 in
00:25 18.4 °F 15.1 °F 1015.8 in Calm     81 % 0.0 in
00:35 18.4 °F 15.3 °F 1015.8 in Calm   1.6 mph 82 % 0.0 in
00:45 18.3 °F 15.0 °F 1015.8 in SW 1.6 mph 3.2 mph 81 % 0.0 in
00:55 18.2 °F 15.1 °F 1016.8 in Calm     82 % 0.0 in
01:05 18.0 °F 14.9 °F 1015.8 in Calm   1.6 mph 82 % 0.0 in
01:15 17.8 °F 14.7 °F 1015.8 in WSW 1.6 mph 1.6 mph 82 % 0.0 in
01:25 17.7 °F 14.6 °F 1014.8 in SW 1.6 mph 3.2 mph 82 % 0.0 in
01:35 17.6 °F 14.5 °F 1016.8 in SW 3.2 mph 3.2 mph 82 % 0.0 in
01:45 17.3 °F 14.4 °F 1016.8 in SW 1.6 mph 3.2 mph 83 % 0.0 in
01:55 17.3 °F 14.4 °F 1015.8 in Calm   3.2 mph 83 % 0.0 in
02:05 17.2 °F 14.3 °F 1016.8 in SW 1.6 mph 1.6 mph 83 % 0.0 in
02:15 17.2 °F 14.3 °F 1016.8 in SW 1.6 mph 3.2 mph 83 % 0.0 in
02:25 17.1 °F 14.2 °F 1016.8 in SW 1.6 mph 1.6 mph 83 % 0.0 in
02:35 17.3 °F 14.6 °F 1015.8 in Calm   1.6 mph 84 % 0.0 in
02:45 17.8 °F 15.1 °F 1015.8 in Calm     84 % 0.0 in
02:55 17.7 °F 14.8 °F 1015.8 in WSW 1.6 mph 3.2 mph 83 % 0.0 in
03:05 18.0 °F 14.7 °F 1016.8 in SW 1.6 mph 3.2 mph 81 % 0.0 in
03:15 18.2 °F 14.7 °F 1016.8 in SW 1.6 mph 4.8 mph 80 % 0.0 in
03:25 18.6 °F 15.1 °F 1015.8 in Calm   3.2 mph 80 % 0.0 in
03:35 19.0 °F 15.1 °F 1016.8 in WSW 1.6 mph 3.2 mph 78 % 0.0 in
03:45 19.4 °F 15.3 °F 1016.8 in SW 1.6 mph 3.2 mph 77 % 0.0 in
03:55 20.2 °F 15.8 °F 1016.8 in SW 1.6 mph 3.2 mph 76 % 0.0 in
04:05 20.4 °F 15.8 °F 1016.8 in SW 1.6 mph 3.2 mph 75 % 0.0 in
04:15 21.5 °F 16.7 °F 1016.8 in SW 3.2 mph 3.2 mph 74 % 0.0 in
04:25 22.3 °F 16.6 °F 1016.8 in South 3.2 mph 3.2 mph 70 % 0.0 in
04:35 22.7 °F 16.9 °F 1017.8 in South 1.6 mph 3.2 mph 70 % 0.0 in
04:45 23.1 °F 16.9 °F 1017.8 in SSW 1.6 mph 6.4 mph 68 % 0.0 in
04:55 23.4 °F 17.4 °F 1016.8 in SW 4.8 mph 4.8 mph 69 % 0.0 in
05:05 23.7 °F 17.7 °F 1017.8 in SW 3.2 mph 9.7 mph 69 % 0.0 in
05:15 23.7 °F 17.7 °F 1017.8 in SW 4.8 mph 8.0 mph 69 % 0.0 in
05:25 24.3 °F 18.0 °F 1016.8 in SW 4.8 mph 6.4 mph 68 % 0.0 in
05:35 24.9 °F 18.1 °F 1016.8 in SW 4.8 mph 6.4 mph 66 % 0.0 in
10:37 25.2 °F 17.9 °F 1016.8 in South 5.6 mph 5.6 mph 64 % 0.0 in
10:42 25.8 °F 18.2 °F 1016.8 in WSW 7.4 mph 7.4 mph 63 % 0.0 in
10:47 25.9 °F 18.1 °F 1016.8 in SSW 9.3 mph 9.3 mph 62 % 0.0 in
10:52 26.3 °F 18.2 °F 1016.8 in SSE 5.6 mph 5.6 mph 61 % 0.0 in
10:57 26.6 °F 18.4 °F 1016.8 in SW 5.6 mph 5.6 mph 61 % 0.0 in
11:02 26.6 °F 18.4 °F 1016.8 in SW 7.4 mph 7.4 mph 61 % 0.0 in
11:07 26.5 °F 17.8 °F 1016.8 in South 7.9 mph 7.9 mph 59 % 0.0 in
11:12 26.9 °F 18.5 °F 1016.8 in SSW 5.8 mph 5.8 mph 60 % 0.0 in
11:17 27.3 °F 18.1 °F 1016.8 in West 3.7 mph 3.7 mph 57 % 0.0 in
11:22 27.7 °F 18.4 °F 1016.8 in West 9.7 mph 9.7 mph 57 % 0.0 in
11:27 27.7 °F 18.4 °F 1016.8 in SW 9.3 mph 9.3 mph 57 % 0.0 in
11:32 28.2 °F 18.3 °F 1016.8 in WSW 7.4 mph 7.4 mph 55 % 0.0 in
11:37 28.1 °F 18.2 °F 1016.8 in SW 13.0 mph 13.0 mph 55 % 0.0 in
11:42 28.2 °F 18.0 °F 1016.8 in South 7.4 mph 7.4 mph 54 % 0.0 in
11:47 28.6 °F 18.1 °F 1016.8 in WSW 6.1 mph 6.1 mph 53 % 0.0 in
11:52 28.9 °F 18.1 °F 1016.8 in SW 7.4 mph 7.4 mph 52 % 0.0 in
11:57 28.8 °F 17.9 °F 1016.8 in SW 7.4 mph 7.4 mph 52 % 0.0 in
12:02 29.1 °F 17.6 °F 1015.8 in SW 9.3 mph 9.3 mph 50 % 0.0 in
12:07 29.4 °F 17.6 °F 1015.8 in WSW 13.0 mph 13.0 mph 49 % 0.0 in
12:12 29.2 °F 16.7 °F 1015.8 in SW 14.8 mph 14.8 mph 47 % 0.0 in
12:17 29.3 °F 16.8 °F 1016.8 in WSW 11.1 mph 11.1 mph 47 % 0.0 in
12:22 29.3 °F 16.1 °F 1016.8 in SW 13.0 mph 13.0 mph 45 % 0.0 in
12:27 29.6 °F 16.4 °F 1016.8 in SSW 11.9 mph 11.9 mph 45 % 0.0 in
12:32 30.0 °F 16.1 °F 1016.8 in WSW 9.3 mph 9.3 mph 43 % 0.0 in
12:37 30.4 °F 16.8 °F 1016.8 in SSW 9.3 mph 9.3 mph 44 % 0.0 in
12:42 30.6 °F 16.9 °F 1016.8 in SSW 9.3 mph 9.3 mph 44 % 0.0 in
12:47 30.4 °F 16.8 °F 1016.8 in SW 7.4 mph 7.4 mph 44 % 0.0 in
12:52 30.6 °F 16.6 °F 1016.8 in West 13.0 mph 13.0 mph 43 % 0.0 in
12:57 30.8 °F 16.8 °F 1016.8 in WNW 11.1 mph 11.1 mph 43 % 0.0 in
13:02 30.6 °F 16.2 °F 1015.8 in SW 14.0 mph 14.0 mph 42 % 0.0 in
13:07 30.7 °F 16.3 °F 1015.8 in SW 11.1 mph 11.1 mph 42 % 0.0 in
13:12 30.8 °F 16.8 °F 1015.8 in SSW 9.3 mph 9.3 mph 43 % 0.0 in
13:18 31.2 °F 16.8 °F 1015.8 in SW 9.3 mph 9.3 mph 42 % 0.0 in
13:22 31.3 °F 15.7 °F 1015.8 in SSE 9.3 mph 9.3 mph 39 % 0.0 in
13:27 31.5 °F 15.9 °F 1015.8 in SE 9.3 mph 9.3 mph 39 % 0.0 in
13:32 32.1 °F 16.0 °F 1015.8 in East 11.1 mph 11.1 mph 38 % 0.0 in
13:38 31.5 °F 15.4 °F 1015.8 in SSE 9.3 mph 10.0 mph 38 % 0.0 in
13:39 31.8 °F 15.7 °F 1015.8 in SSE 7.4 mph 7.4 mph 38 % 0.0 in
13:44 31.7 °F 15.2 °F 1015.8 in South 13.0 mph 13.0 mph 37 % 0.0 in
13:49 31.6 °F 15.1 °F 1015.8 in SSW 5.6 mph 6.9 mph 37 % 0.0 in
13:54 31.8 °F 14.9 °F 1015.8 in SW 11.9 mph 11.9 mph 36 % 0.0 in
13:59 31.6 °F 14.3 °F 1015.8 in SSW 14.8 mph 14.8 mph 35 % 0.0 in
14:04 31.7 °F 14.3 °F 1015.8 in SW 9.3 mph 9.3 mph 35 % 0.0 in
14:09 32.0 °F 14.6 °F 1015.8 in SE 7.4 mph 7.4 mph 35 % 0.0 in
14:14 32.3 °F 14.9 °F 1015.8 in SSW 16.7 mph 16.7 mph 35 % 0.0 in
14:19 32.2 °F 14.3 °F 1015.8 in SW 11.9 mph 11.9 mph 34 % 0.0 in
14:24 31.7 °F 13.9 °F 1015.8 in SW 16.7 mph 16.7 mph 34 % 0.0 in
14:29 31.8 °F 14.0 °F 1015.8 in SW 5.8 mph 5.8 mph 34 % 0.0 in
14:34 31.3 °F 12.6 °F 1015.8 in SSE 14.8 mph 14.8 mph 32 % 0.0 in
14:39 32.2 °F 13.9 °F 1015.8 in SW 6.1 mph 6.1 mph 33 % 0.0 in
14:44 32.4 °F 14.1 °F 1015.8 in South 6.4 mph 6.4 mph 33 % 0.0 in
14:49 32.7 °F 13.8 °F 1015.8 in SSE 5.6 mph 5.6 mph 32 % 0.0 in
14:54 32.2 °F 13.4 °F 1015.8 in South 9.3 mph 9.3 mph 32 % 0.0 in
14:59 32.2 °F 13.4 °F 1014.8 in SSW 13.0 mph 13.0 mph 32 % 0.0 in
15:04 32.4 °F 13.6 °F 1014.8 in SW 9.3 mph 9.3 mph 32 % 0.0 in
15:09 32.4 °F 13.6 °F 1014.8 in WSW 7.4 mph 7.4 mph 32 % 0.0 in
15:14 32.3 °F 13.5 °F 1015.8 in SW 9.3 mph 9.3 mph 32 % 0.0 in
15:19 32.2 °F 12.9 °F 1015.8 in South 14.8 mph 14.8 mph 31 % 0.0 in
15:24 32.6 °F 13.8 °F 1015.8 in West 7.4 mph 7.4 mph 32 % 0.0 in
15:29 32.4 °F 13.1 °F 1015.8 in WSW 7.4 mph 7.4 mph 31 % 0.0 in
15:34 32.8 °F 13.9 °F 1015.8 in WNW 7.4 mph 7.4 mph 32 % 0.0 in
15:39 33.0 °F 13.6 °F 1015.8 in South 9.3 mph 9.3 mph 31 % 0.0 in
15:44 32.9 °F 13.6 °F 1015.8 in SSW 9.3 mph 9.3 mph 31 % 0.0 in
15:49 32.8 °F 13.4 °F 1015.8 in SSW 9.3 mph 9.3 mph 31 % 0.0 in
15:54 32.6 °F 13.3 °F 1015.8 in WSW 13.0 mph 13.0 mph 31 % 0.0 in
15:59 32.7 °F 13.3 °F 1015.8 in SSW 13.0 mph 13.0 mph 31 % 0.0 in
16:05 32.3 °F 12.5 °F 1015.8 in SW 8.7 mph 8.7 mph 30 % 0.0 in
16:10 32.5 °F 13.2 °F 1015.8 in SW 14.8 mph 14.8 mph 31 % 0.0 in
16:15 33.0 °F 12.6 °F 1015.8 in SSW 16.9 mph 16.9 mph 29 % 0.0 in
16:20 32.1 °F 12.3 °F 1015.8 in WSW 13.0 mph 13.0 mph 30 % 0.0 in
16:25 31.8 °F 12.6 °F 1015.8 in WSW 16.7 mph 16.7 mph 31 % 0.0 in
16:30 32.0 °F 12.8 °F 1015.8 in SSE 13.0 mph 13.0 mph 31 % 0.0 in
16:35 31.9 °F 12.7 °F 1015.8 in South 11.4 mph 11.4 mph 31 % 0.0 in
16:40 31.4 °F 11.7 °F 1015.8 in South 22.2 mph 22.2 mph 30 % 0.0 in
16:45 31.2 °F 11.6 °F 1015.8 in West 11.1 mph 11.1 mph 30 % 0.0 in
16:50 31.7 °F 12.5 °F 1015.8 in SW 9.3 mph 9.3 mph 31 % 0.0 in
16:55 31.6 °F 12.4 °F 1015.8 in SSW 13.0 mph 13.0 mph 31 % 0.0 in
17:00 31.6 °F 12.4 °F 1015.8 in SW 9.7 mph 9.7 mph 31 % 0.0 in
17:05 31.2 °F 12.1 °F 1015.8 in SW 9.5 mph 9.5 mph 31 % 0.0 in
17:10 31.3 °F 11.7 °F 1015.8 in SW 11.1 mph 11.1 mph 30 % 0.0 in
17:15 31.0 °F 11.9 °F 1014.8 in South 10.3 mph 10.3 mph 31 % 0.0 in
17:20 31.2 °F 12.1 °F 1014.8 in SW 16.7 mph 16.7 mph 31 % 0.0 in
17:25 31.0 °F 11.9 °F 1014.8 in South 9.3 mph 9.3 mph 31 % 0.0 in
17:30 31.5 °F 12.3 °F 1016.8 in SSW 7.4 mph 7.4 mph 31 % 0.0 in
17:35 31.5 °F 12.3 °F 1016.8 in SSW 9.3 mph 9.3 mph 31 % 0.0 in
17:40 31.1 °F 12.0 °F 1016.8 in West 9.3 mph 9.3 mph 31 % 0.0 in
17:45 31.0 °F 11.9 °F 1014.8 in SSW 18.5 mph 18.5 mph 31 % 0.0 in
17:50 30.6 °F 11.6 °F 1014.8 in SW 13.0 mph 13.0 mph 31 % 0.0 in
17:52 30.4 °F 11.4 °F 1014.8 in SW 13.0 mph 13.0 mph 31 % 0.0 in
17:57 30.4 °F 11.8 °F 1014.8 in WSW 11.1 mph 11.4 mph 32 % 0.0 in
18:02 30.5 °F 11.9 °F 1015.8 in West 9.3 mph 9.3 mph 32 % 0.0 in
18:07 30.3 °F 11.3 °F 1015.8 in SW 13.0 mph 13.0 mph 31 % 0.0 in
18:12 30.0 °F 11.0 °F 1015.8 in SW 14.8 mph 14.8 mph 31 % 0.0 in
18:17 30.0 °F 11.5 °F 1014.8 in WSW 12.2 mph 12.2 mph 32 % 0.0 in
18:22 30.1 °F 11.6 °F 1014.8 in SW 9.5 mph 9.5 mph 32 % 0.0 in
18:27 29.6 °F 11.2 °F 1014.8 in SW 11.4 mph 11.4 mph 32 % 0.0 in
18:32 29.9 °F 11.4 °F 1015.8 in SW 7.4 mph 7.4 mph 32 % 0.0 in
18:37 30.0 °F 11.5 °F 1015.8 in West 9.3 mph 9.3 mph 32 % 0.0 in
18:42 30.0 °F 11.5 °F 1015.8 in WSW 14.8 mph 14.8 mph 32 % 0.0 in
18:47 29.7 °F 11.2 °F 1015.8 in SW 9.3 mph 9.3 mph 32 % 0.0 in
18:52 29.6 °F 11.2 °F 1015.8 in West 11.1 mph 11.1 mph 32 % 0.0 in
18:57 29.5 °F 11.1 °F 1015.8 in WSW 9.3 mph 9.3 mph 32 % 0.0 in
19:02 29.5 °F 11.1 °F 1015.8 in South 7.4 mph 7.4 mph 32 % 0.0 in
19:07 29.3 °F 10.9 °F 1015.8 in SSW 9.5 mph 9.5 mph 32 % 0.0 in
19:12 29.2 °F 10.8 °F 1015.8 in WSW 7.9 mph 7.9 mph 32 % 0.0 in
19:13 29.2 °F 10.8 °F 1015.8 in SSW 7.4 mph 7.4 mph 32 % 0.0 in
19:18 28.9 °F 10.6 °F 1015.8 in SW 11.1 mph 11.1 mph 32 % 0.0 in
19:23 28.7 °F 10.4 °F 1015.8 in SW 9.5 mph 9.5 mph 32 % 0.0 in
19:28 28.6 °F 10.7 °F 1015.8 in SW 9.3 mph 9.3 mph 33 % 0.0 in
19:33 28.4 °F 10.6 °F 1015.8 in SW 9.3 mph 9.3 mph 33 % 0.0 in
19:38 28.3 °F 10.0 °F 1015.8 in WSW 7.4 mph 7.4 mph 32 % 0.0 in
19:43 28.1 °F 9.8 °F 1015.8 in SW 14.8 mph 14.8 mph 32 % 0.0 in
19:48 28.0 °F 10.2 °F 1015.8 in WSW 9.3 mph 9.3 mph 33 % 0.0 in
19:53 27.7 °F 9.9 °F 1015.8 in SSW 9.3 mph 9.3 mph 33 % 0.0 in
19:58 27.6 °F 9.9 °F 1015.8 in SW 9.3 mph 9.3 mph 33 % 0.0 in
20:03 27.5 °F 10.2 °F 1015.8 in WSW 7.4 mph 7.4 mph 34 % 0.0 in
20:08 27.3 °F 10.1 °F 1015.8 in SW 7.4 mph 7.4 mph 34 % 0.0 in
20:13 27.2 °F 10.4 °F 1015.8 in West 5.6 mph 5.6 mph 35 % 0.0 in
20:18 27.0 °F 10.2 °F 1015.8 in SW 7.4 mph 7.4 mph 35 % 0.0 in
20:20 27.0 °F 10.2 °F 1015.8 in WSW 9.3 mph 9.3 mph 35 % 0.0 in
20:25 26.8 °F 10.5 °F 1015.8 in SW 7.4 mph 7.4 mph 36 % 0.0 in
20:30 26.7 °F 10.4 °F 1015.8 in SW 4.2 mph 4.2 mph 36 % 0.0 in
20:35 26.5 °F 10.6 °F 1015.8 in WSW 5.6 mph 5.6 mph 37 % 0.0 in
20:40 26.3 °F 10.4 °F 1015.8 in SW 3.9 mph 3.9 mph 37 % 0.0 in
20:45 26.1 °F 10.3 °F 1015.8 in SW 3.9 mph 3.9 mph 37 % 0.0 in
20:50 25.9 °F 10.5 °F 1015.8 in West 5.6 mph 5.6 mph 38 % 0.0 in
20:55 25.7 °F 10.3 °F 1015.8 in WSW 3.7 mph 3.7 mph 38 % 0.0 in
21:00 25.5 °F 10.1 °F 1015.8 in WSW 3.9 mph 3.9 mph 38 % 0.0 in
21:05 25.4 °F 10.4 °F 1015.8 in SW 3.7 mph 3.7 mph 39 % 0.0 in
21:10 25.2 °F 10.3 °F 1015.8 in WSW 3.7 mph 3.7 mph 39 % 0.0 in
21:15 25.1 °F 10.2 °F 1015.8 in WSW 3.7 mph 3.7 mph 39 % 0.0 in
21:20 24.9 °F 10.7 °F 1015.8 in SW 3.7 mph 3.7 mph 41 % 0.0 in
21:25 24.8 °F 10.7 °F 1015.8 in Calm     41 % 0.0 in
21:30 24.6 °F 10.8 °F 1015.8 in ENE 3.7 mph 3.7 mph 42 % 0.0 in
21:35 24.6 °F 10.8 °F 1015.8 in ENE 1.9 mph 1.9 mph 42 % 0.0 in
21:40 24.5 °F 10.7 °F 1015.8 in Calm     42 % 0.0 in
21:45 24.4 °F 11.0 °F 1015.8 in ENE 1.9 mph   43 % 0.0 in
21:50 24.4 °F 11.0 °F 1015.8 in Calm     43 % 0.0 in
21:55 24.5 °F 11.1 °F 1015.8 in Calm     43 % 0.0 in
22:00 24.4 °F 11.3 °F 1016.8 in East 3.9 mph 3.9 mph 44 % 0.0 in
22:05 24.2 °F 11.5 °F 1016.8 in NE 3.9 mph 3.9 mph 45 % 0.0 in
22:10 24.0 °F 11.7 °F 1016.8 in ENE 1.9 mph 1.9 mph 46 % 0.0 in
22:15 24.0 °F 12.0 °F 1017.8 in NNE 2.3 mph 2.3 mph 47 % 0.0 in
22:20 23.9 °F 12.2 °F 1017.8 in Calm     48 % 0.0 in
22:25 23.8 °F 12.4 °F 1017.8 in NNE 1.9 mph   49 % 0.0 in
22:30 23.7 °F 12.7 °F 1016.8 in NNE 1.9 mph   50 % 0.0 in
22:35 23.6 °F 12.9 °F 1016.8 in NNE 1.9 mph   51 % 0.0 in
22:40 23.5 °F 13.1 °F 1016.8 in North 1.9 mph   52 % 0.0 in
22:45 23.4 °F 13.0 °F 1017.8 in NNE 3.7 mph 3.7 mph 52 % 0.0 in
22:50 23.2 °F 13.1 °F 1017.8 in Calm     53 % 0.0 in
22:55 23.1 °F 13.3 °F 1017.8 in Calm     54 % 0.0 in
23:00 23.0 °F 13.4 °F 1017.8 in NNE 1.9 mph   55 % 0.0 in
23:05 22.9 °F 13.4 °F 1017.8 in NW 1.9 mph 1.9 mph 55 % 0.0 in
23:10 22.8 °F 13.3 °F 1017.8 in NNW 1.9 mph   55 % 0.0 in
23:15 22.8 °F 13.6 °F 1017.8 in Calm     56 % 0.0 in
23:20 22.7 °F 13.4 °F 1017.8 in Calm     56 % 0.0 in
23:25 22.6 °F 13.7 °F 1017.8 in North 1.9 mph   57 % 0.0 in
23:30 22.5 °F 13.6 °F 1017.8 in Calm     57 % 0.0 in
23:35 22.5 °F 13.8 °F 1017.8 in NE 3.7 mph 3.7 mph 58 % 0.0 in
23:40 22.4 °F 13.7 °F 1017.8 in NE 1.9 mph 1.9 mph 58 % 0.0 in
23:45 22.3 °F 13.9 °F 1017.8 in Calm     59 % 0.0 in
23:50 22.3 °F 13.9 °F 1017.8 in NNE 3.9 mph 3.9 mph 59 % 0.0 in
23:55 22.2 °F 13.8 °F 1017.8 in NNE 3.7 mph 3.7 mph 59 % 0.0 in
Meteo Sesrovires
Elogis d' Weather Underground - 1.5 mb

Guio original per  Jim McMurry - jmcmurry@mwt.net Adaptat per a la plantilla per  Wim van der Kuil - Leuven-Template.eu

Trobareu la nostra informacio del temps tambe a:

Weather Underground

AWEKAS